sensor_id;sensor_type;location;lat;lon;timestamp;pressure;altitude;pressure_sealevel;temperature;humidity
15670;BME280;18524;45.190;5.732;2023-12-07T00:02:47;99526.16;;;5.05;100.00
15670;BME280;18524;45.190;5.732;2023-12-07T00:07:37;99525.56;;;4.83;100.00
15670;BME280;18524;45.190;5.732;2023-12-07T00:12:27;99542.22;;;4.79;100.00
15670;BME280;18524;45.190;5.732;2023-12-07T00:17:18;99531.63;;;4.83;100.00
15670;BME280;18524;45.190;5.732;2023-12-07T00:22:09;99535.66;;;4.71;100.00
15670;BME280;18524;45.190;5.732;2023-12-07T00:26:59;99535.97;;;4.65;100.00
15670;BME280;18524;45.190;5.732;2023-12-07T00:31:50;99545.13;;;4.72;100.00
15670;BME280;18524;45.190;5.732;2023-12-07T00:36:42;99547.06;;;4.52;100.00
15670;BME280;18524;45.190;5.732;2023-12-07T00:41:32;99534.53;;;4.60;100.00
15670;BME280;18524;45.190;5.732;2023-12-07T00:46:22;99549.25;;;4.59;100.00
15670;BME280;18524;45.190;5.732;2023-12-07T00:51:13;99544.06;;;4.59;100.00
15670;BME280;18524;45.190;5.732;2023-12-07T00:56:05;99551.94;;;4.75;100.00
15670;BME280;18524;45.190;5.732;2023-12-07T01:00:56;99553.06;;;4.69;100.00
15670;BME280;18524;45.190;5.732;2023-12-07T01:05:46;99561.41;;;4.76;100.00
15670;BME280;18524;45.190;5.732;2023-12-07T01:10:37;99560.63;;;4.74;100.00
15670;BME280;18524;45.190;5.732;2023-12-07T01:15:27;99562.72;;;4.85;100.00
15670;BME280;18524;45.190;5.732;2023-12-07T01:20:18;99573.25;;;4.82;100.00
15670;BME280;18524;45.190;5.732;2023-12-07T01:25:08;99581.34;;;4.58;100.00
15670;BME280;18524;45.190;5.732;2023-12-07T01:29:58;99580.41;;;4.42;100.00
15670;BME280;18524;45.190;5.732;2023-12-07T01:34:49;99567.78;;;4.34;100.00
15670;BME280;18524;45.190;5.732;2023-12-07T01:39:41;99580.53;;;4.39;100.00
15670;BME280;18524;45.190;5.732;2023-12-07T01:44:31;99575.50;;;4.36;100.00
15670;BME280;18524;45.190;5.732;2023-12-07T01:49:22;99576.50;;;4.33;100.00
15670;BME280;18524;45.190;5.732;2023-12-07T01:54:13;99579.16;;;4.32;100.00
15670;BME280;18524;45.190;5.732;2023-12-07T01:59:03;99585.81;;;4.37;100.00
15670;BME280;18524;45.190;5.732;2023-12-07T02:03:54;99593.34;;;4.25;100.00
15670;BME280;18524;45.190;5.732;2023-12-07T02:08:44;99596.94;;;4.03;100.00
15670;BME280;18524;45.190;5.732;2023-12-07T02:13:40;99612.88;;;4.15;100.00
15670;BME280;18524;45.190;5.732;2023-12-07T02:23:28;99603.13;;;4.20;100.00
15670;BME280;18524;45.190;5.732;2023-12-07T02:28:19;99605.31;;;3.91;100.00
15670;BME280;18524;45.190;5.732;2023-12-07T02:33:10;99599.63;;;3.83;100.00
15670;BME280;18524;45.190;5.732;2023-12-07T02:38:01;99589.41;;;3.80;100.00
15670;BME280;18524;45.190;5.732;2023-12-07T02:42:53;99595.56;;;3.78;100.00
15670;BME280;18524;45.190;5.732;2023-12-07T02:47:44;99591.63;;;3.88;100.00
15670;BME280;18524;45.190;5.732;2023-12-07T02:52:35;99587.16;;;3.91;100.00
15670;BME280;18524;45.190;5.732;2023-12-07T02:57:25;99587.50;;;3.84;100.00
15670;BME280;18524;45.190;5.732;2023-12-07T03:02:16;99580.78;;;3.80;100.00
15670;BME280;18524;45.190;5.732;2023-12-07T03:07:06;99580.34;;;3.70;100.00
15670;BME280;18524;45.190;5.732;2023-12-07T03:11:57;99577.19;;;3.63;100.00
15670;BME280;18524;45.190;5.732;2023-12-07T03:16:47;99563.66;;;3.38;100.00
15670;BME280;18524;45.190;5.732;2023-12-07T03:21:41;99575.78;;;3.17;100.00
15670;BME280;18524;45.190;5.732;2023-12-07T03:26:33;99568.78;;;3.19;100.00
15670;BME280;18524;45.190;5.732;2023-12-07T03:31:23;99573.63;;;3.27;100.00
15670;BME280;18524;45.190;5.732;2023-12-07T03:36:13;99561.56;;;3.26;100.00
15670;BME280;18524;45.190;5.732;2023-12-07T03:41:04;99563.81;;;3.33;100.00
15670;BME280;18524;45.190;5.732;2023-12-07T03:45:54;99568.97;;;3.35;100.00
15670;BME280;18524;45.190;5.732;2023-12-07T03:50:45;99565.34;;;3.19;100.00
15670;BME280;18524;45.190;5.732;2023-12-07T03:55:35;99567.25;;;3.15;100.00
15670;BME280;18524;45.190;5.732;2023-12-07T04:00:26;99559.41;;;3.17;100.00
15670;BME280;18524;45.190;5.732;2023-12-07T04:05:17;99570.41;;;2.81;100.00
15670;BME280;18524;45.190;5.732;2023-12-07T04:10:07;99566.22;;;2.78;100.00
15670;BME280;18524;45.190;5.732;2023-12-07T04:14:58;99561.41;;;2.90;100.00
15670;BME280;18524;45.190;5.732;2023-12-07T04:19:48;99565.13;;;2.84;100.00
15670;BME280;18524;45.190;5.732;2023-12-07T04:24:39;99561.38;;;2.71;100.00
15670;BME280;18524;45.190;5.732;2023-12-07T04:29:29;99572.59;;;2.49;100.00
15670;BME280;18524;45.190;5.732;2023-12-07T04:34:19;99569.94;;;2.51;100.00
15670;BME280;18524;45.190;5.732;2023-12-07T04:39:10;99575.59;;;2.61;100.00
15670;BME280;18524;45.190;5.732;2023-12-07T04:44:00;99582.00;;;2.72;100.00
15670;BME280;18524;45.190;5.732;2023-12-07T04:48:50;99577.06;;;2.46;100.00
15670;BME280;18524;45.190;5.732;2023-12-07T04:53:41;99564.69;;;2.32;100.00
15670;BME280;18524;45.190;5.732;2023-12-07T04:58:31;99578.59;;;2.50;100.00
15670;BME280;18524;45.190;5.732;2023-12-07T05:03:22;99573.38;;;2.51;100.00
15670;BME280;18524;45.190;5.732;2023-12-07T05:08:12;99585.84;;;2.42;100.00
15670;BME280;18524;45.190;5.732;2023-12-07T05:13:02;99599.25;;;2.51;100.00
15670;BME280;18524;45.190;5.732;2023-12-07T05:17:53;99594.13;;;2.50;100.00
15670;BME280;18524;45.190;5.732;2023-12-07T05:22:44;99602.28;;;2.41;100.00
15670;BME280;18524;45.190;5.732;2023-12-07T05:27:34;99606.19;;;2.29;100.00
15670;BME280;18524;45.190;5.732;2023-12-07T05:32:25;99613.53;;;2.18;100.00
15670;BME280;18524;45.190;5.732;2023-12-07T05:37:15;99606.16;;;2.31;100.00
15670;BME280;18524;45.190;5.732;2023-12-07T05:42:06;99616.63;;;2.28;100.00
15670;BME280;18524;45.190;5.732;2023-12-07T05:46:56;99615.75;;;2.49;100.00
15670;BME280;18524;45.190;5.732;2023-12-07T05:51:48;99615.09;;;2.44;100.00
15670;BME280;18524;45.190;5.732;2023-12-07T05:56:39;99613.88;;;2.53;100.00
15670;BME280;18524;45.190;5.732;2023-12-07T06:01:30;99609.91;;;2.66;100.00
15670;BME280;18524;45.190;5.732;2023-12-07T06:06:20;99617.09;;;2.79;100.00
15670;BME280;18524;45.190;5.732;2023-12-07T06:11:11;99617.22;;;2.76;100.00
15670;BME280;18524;45.190;5.732;2023-12-07T06:16:01;99615.41;;;2.78;100.00
15670;BME280;18524;45.190;5.732;2023-12-07T06:20:53;99612.97;;;2.75;100.00
15670;BME280;18524;45.190;5.732;2023-12-07T06:25:43;99616.22;;;3.01;100.00
15670;BME280;18524;45.190;5.732;2023-12-07T06:30:33;99624.97;;;2.98;100.00
15670;BME280;18524;45.190;5.732;2023-12-07T06:35:24;99617.75;;;2.85;100.00
15670;BME280;18524;45.190;5.732;2023-12-07T06:40:15;99625.41;;;2.88;100.00
15670;BME280;18524;45.190;5.732;2023-12-07T06:45:06;99624.88;;;2.58;100.00
15670;BME280;18524;45.190;5.732;2023-12-07T06:50:00;99628.94;;;2.65;100.00
15670;BME280;18524;45.190;5.732;2023-12-07T06:54:52;99616.06;;;2.63;100.00
15670;BME280;18524;45.190;5.732;2023-12-07T06:59:43;99623.06;;;2.60;100.00
15670;BME280;18524;45.190;5.732;2023-12-07T07:04:33;99619.19;;;2.49;100.00
15670;BME280;18524;45.190;5.732;2023-12-07T07:09:24;99618.59;;;2.65;100.00
15670;BME280;18524;45.190;5.732;2023-12-07T07:14:15;99629.53;;;2.71;100.00
15670;BME280;18524;45.190;5.732;2023-12-07T07:19:06;99637.44;;;2.68;100.00
15670;BME280;18524;45.190;5.732;2023-12-07T07:23:56;99649.28;;;2.52;100.00
15670;BME280;18524;45.190;5.732;2023-12-07T07:28:46;99654.16;;;2.60;100.00
15670;BME280;18524;45.190;5.732;2023-12-07T07:33:37;99652.66;;;2.54;100.00
15670;BME280;18524;45.190;5.732;2023-12-07T07:38:27;99656.63;;;2.63;100.00
15670;BME280;18524;45.190;5.732;2023-12-07T07:43:17;99638.50;;;2.41;100.00
15670;BME280;18524;45.190;5.732;2023-12-07T07:48:08;99641.44;;;2.54;100.00
15670;BME280;18524;45.190;5.732;2023-12-07T07:52:58;99620.03;;;2.50;100.00
15670;BME280;18524;45.190;5.732;2023-12-07T07:57:48;99619.56;;;2.62;100.00
15670;BME280;18524;45.190;5.732;2023-12-07T08:02:39;99605.84;;;2.80;100.00
15670;BME280;18524;45.190;5.732;2023-12-07T08:07:29;99594.53;;;3.03;100.00
15670;BME280;18524;45.190;5.732;2023-12-07T08:12:19;99576.59;;;2.99;100.00
15670;BME280;18524;45.190;5.732;2023-12-07T08:17:12;99565.75;;;3.09;100.00
15670;BME280;18524;45.190;5.732;2023-12-07T08:22:03;99565.56;;;3.33;100.00
15670;BME280;18524;45.190;5.732;2023-12-07T08:26:53;99564.63;;;3.35;100.00
15670;BME280;18524;45.190;5.732;2023-12-07T08:31:44;99559.56;;;3.32;100.00
15670;BME280;18524;45.190;5.732;2023-12-07T08:36:34;99555.81;;;3.39;100.00
15670;BME280;18524;45.190;5.732;2023-12-07T08:41:24;99547.47;;;3.52;100.00
15670;BME280;18524;45.190;5.732;2023-12-07T08:46:15;99542.84;;;3.77;100.00
15670;BME280;18524;45.190;5.732;2023-12-07T08:51:06;99537.47;;;4.18;100.00
15670;BME280;18524;45.190;5.732;2023-12-07T08:55:58;99533.72;;;4.23;97.62
15670;BME280;18524;45.190;5.732;2023-12-07T09:00:48;99536.47;;;4.37;95.78
15670;BME280;18524;45.190;5.732;2023-12-07T09:05:39;99547.56;;;4.41;96.15
15670;BME280;18524;45.190;5.732;2023-12-07T09:10:29;99541.00;;;4.68;92.26
15670;BME280;18524;45.190;5.732;2023-12-07T09:15:19;99538.34;;;4.70;90.15
15670;BME280;18524;45.190;5.732;2023-12-07T09:20:11;99541.13;;;5.00;89.25
15670;BME280;18524;45.190;5.732;2023-12-07T09:25:02;99555.00;;;5.33;85.08
15670;BME280;18524;45.190;5.732;2023-12-07T09:29:52;99547.16;;;5.67;82.91
15670;BME280;18524;45.190;5.732;2023-12-07T09:34:43;99545.56;;;5.64;80.73
15670;BME280;18524;45.190;5.732;2023-12-07T09:39:33;99549.31;;;5.43;82.04
15670;BME280;18524;45.190;5.732;2023-12-07T09:44:24;99534.34;;;5.30;80.04
15670;BME280;18524;45.190;5.732;2023-12-07T09:49:14;99533.63;;;5.11;84.21
15670;BME280;18524;45.190;5.732;2023-12-07T09:54:04;99531.09;;;5.43;81.55
15670;BME280;18524;45.190;5.732;2023-12-07T09:58:55;99527.56;;;5.44;80.85
15670;BME280;18524;45.190;5.732;2023-12-07T10:03:46;99527.69;;;5.58;79.46
15670;BME280;18524;45.190;5.732;2023-12-07T10:08:38;99530.47;;;5.71;78.97
15670;BME280;18524;45.190;5.732;2023-12-07T10:13:32;99530.41;;;6.04;77.04
15670;BME280;18524;45.190;5.732;2023-12-07T10:18:23;99532.53;;;6.27;75.99
15670;BME280;18524;45.190;5.732;2023-12-07T10:23:14;99515.38;;;6.69;73.98
15670;BME280;18524;45.190;5.732;2023-12-07T10:28:08;99531.09;;;6.67;72.75
15670;BME280;18524;45.190;5.732;2023-12-07T10:32:58;99502.31;;;6.54;72.11
15670;BME280;18524;45.190;5.732;2023-12-07T10:37:49;99492.59;;;6.72;72.56
15670;BME280;18524;45.190;5.732;2023-12-07T10:42:41;99470.25;;;6.97;73.25
15670;BME280;18524;45.190;5.732;2023-12-07T10:47:37;99462.72;;;7.20;71.44
15670;BME280;18524;45.190;5.732;2023-12-07T10:52:32;99470.31;;;7.38;71.25
15670;BME280;18524;45.190;5.732;2023-12-07T10:57:25;99444.94;;;7.13;71.50
15670;BME280;18524;45.190;5.732;2023-12-07T11:02:16;99439.59;;;7.29;70.43
15670;BME280;18524;45.190;5.732;2023-12-07T11:07:11;99442.66;;;7.35;71.97
15670;BME280;18524;45.190;5.732;2023-12-07T11:12:13;99424.53;;;7.61;70.15
15670;BME280;18524;45.190;5.732;2023-12-07T11:17:08;99413.72;;;7.79;69.70
15670;BME280;18524;45.190;5.732;2023-12-07T11:22:03;99419.13;;;7.64;68.65
15670;BME280;18524;45.190;5.732;2023-12-07T11:26:57;99406.53;;;7.29;70.30
15670;BME280;18524;45.190;5.732;2023-12-07T11:31:48;99401.00;;;7.48;70.60
15670;BME280;18524;45.190;5.732;2023-12-07T11:36:39;99392.66;;;7.56;70.43
15670;BME280;18524;45.190;5.732;2023-12-07T11:41:30;99375.97;;;7.58;69.26
15670;BME280;18524;45.190;5.732;2023-12-07T11:46:23;99371.03;;;7.27;71.67
15670;BME280;18524;45.190;5.732;2023-12-07T11:51:16;99349.53;;;7.50;68.35
15670;BME280;18524;45.190;5.732;2023-12-07T11:56:10;99352.63;;;7.42;67.41
15670;BME280;18524;45.190;5.732;2023-12-07T12:01:03;99320.75;;;7.64;68.18
15670;BME280;18524;45.190;5.732;2023-12-07T12:05:55;99316.16;;;7.55;67.18
15670;BME280;18524;45.190;5.732;2023-12-07T12:10:47;99323.38;;;7.64;66.66
15670;BME280;18524;45.190;5.732;2023-12-07T12:15:40;99310.22;;;7.66;65.53
15670;BME280;18524;45.190;5.732;2023-12-07T12:20:30;99295.28;;;7.68;66.99
15670;BME280;18524;45.190;5.732;2023-12-07T12:25:26;99276.69;;;7.60;65.89
15670;BME280;18524;45.190;5.732;2023-12-07T12:30:19;99261.88;;;7.60;65.17
15670;BME280;18524;45.190;5.732;2023-12-07T12:35:10;99242.03;;;7.45;63.56
15670;BME280;18524;45.190;5.732;2023-12-07T12:40:06;99245.75;;;7.41;64.63
15670;BME280;18524;45.190;5.732;2023-12-07T12:44:57;99245.00;;;7.39;64.95
15670;BME280;18524;45.190;5.732;2023-12-07T12:49:47;99249.66;;;7.61;65.72
15670;BME280;18524;45.190;5.732;2023-12-07T12:54:37;99236.81;;;7.58;65.20
15670;BME280;18524;45.190;5.732;2023-12-07T12:59:28;99233.00;;;7.36;64.10
15670;BME280;18524;45.190;5.732;2023-12-07T13:04:18;99232.91;;;7.38;65.20
15670;BME280;18524;45.190;5.732;2023-12-07T13:09:08;99228.38;;;7.14;67.13
15670;BME280;18524;45.190;5.732;2023-12-07T13:13:59;99233.81;;;7.24;68.10
15670;BME280;18524;45.190;5.732;2023-12-07T13:18:49;99221.41;;;7.28;68.94
15670;BME280;18524;45.190;5.732;2023-12-07T13:23:40;99208.78;;;7.21;68.86
15670;BME280;18524;45.190;5.732;2023-12-07T13:28:30;99198.78;;;7.28;68.45
15670;BME280;18524;45.190;5.732;2023-12-07T13:33:21;99186.78;;;7.26;68.97
15670;BME280;18524;45.190;5.732;2023-12-07T13:38:13;99175.59;;;7.24;68.28
15670;BME280;18524;45.190;5.732;2023-12-07T13:43:03;99167.47;;;7.15;69.16
15670;BME280;18524;45.190;5.732;2023-12-07T13:47:53;99152.44;;;7.06;70.69
15670;BME280;18524;45.190;5.732;2023-12-07T13:52:44;99135.91;;;7.06;71.55
15670;BME280;18524;45.190;5.732;2023-12-07T13:57:34;99133.63;;;7.01;72.61
15670;BME280;18524;45.190;5.732;2023-12-07T14:02:24;99132.09;;;7.11;72.83
15670;BME280;18524;45.190;5.732;2023-12-07T14:07:18;99134.19;;;7.06;71.73
15670;BME280;18524;45.190;5.732;2023-12-07T14:12:09;99125.91;;;7.00;71.34
15670;BME280;18524;45.190;5.732;2023-12-07T14:17:03;99127.88;;;6.96;71.88
15670;BME280;18524;45.190;5.732;2023-12-07T14:21:53;99122.31;;;6.75;72.20
15670;BME280;18524;45.190;5.732;2023-12-07T14:26:44;99121.41;;;6.89;71.05
15670;BME280;18524;45.190;5.732;2023-12-07T14:31:34;99111.59;;;6.80;71.44
15670;BME280;18524;45.190;5.732;2023-12-07T14:36:27;99104.19;;;6.86;71.67
15670;BME280;18524;45.190;5.732;2023-12-07T14:41:17;99105.75;;;6.89;71.67
15670;BME280;18524;45.190;5.732;2023-12-07T14:46:07;99106.50;;;6.91;72.78
15670;BME280;18524;45.190;5.732;2023-12-07T14:50:58;99097.53;;;6.82;73.73
15670;BME280;18524;45.190;5.732;2023-12-07T14:55:48;99094.81;;;6.84;73.66
15670;BME280;18524;45.190;5.732;2023-12-07T15:00:41;99096.19;;;6.89;72.96
15670;BME280;18524;45.190;5.732;2023-12-07T15:05:31;99091.69;;;6.79;73.83
15670;BME280;18524;45.190;5.732;2023-12-07T15:10:22;99087.50;;;6.76;74.73
15670;BME280;18524;45.190;5.732;2023-12-07T15:15:12;99080.41;;;6.78;74.24
15670;BME280;18524;45.190;5.732;2023-12-07T15:20:03;99085.47;;;6.67;75.13
15670;BME280;18524;45.190;5.732;2023-12-07T15:24:54;99083.63;;;6.69;75.15
15670;BME280;18524;45.190;5.732;2023-12-07T15:29:45;99087.44;;;6.64;75.49
15670;BME280;18524;45.190;5.732;2023-12-07T15:34:35;99111.19;;;6.59;76.74
15670;BME280;18524;45.190;5.732;2023-12-07T15:39:25;99103.91;;;6.64;76.10
15670;BME280;18524;45.190;5.732;2023-12-07T15:44:16;99107.09;;;6.69;76.72
15670;BME280;18524;45.190;5.732;2023-12-07T15:49:06;99094.59;;;6.74;74.93
15670;BME280;18524;45.190;5.732;2023-12-07T15:53:56;99093.41;;;6.66;74.20
15670;BME280;18524;45.190;5.732;2023-12-07T15:58:46;99092.03;;;6.60;74.53
15670;BME280;18524;45.190;5.732;2023-12-07T16:03:37;99083.28;;;6.61;74.25
15670;BME280;18524;45.190;5.732;2023-12-07T16:08:27;99079.53;;;6.65;75.34
15670;BME280;18524;45.190;5.732;2023-12-07T16:13:18;99081.81;;;6.57;75.69
15670;BME280;18524;45.190;5.732;2023-12-07T16:18:08;99082.44;;;6.61;75.98
15670;BME280;18524;45.190;5.732;2023-12-07T16:22:58;99078.31;;;6.71;75.91
15670;BME280;18524;45.190;5.732;2023-12-07T16:27:49;99084.78;;;6.78;76.19
15670;BME280;18524;45.190;5.732;2023-12-07T16:32:39;99088.97;;;6.80;75.04
15670;BME280;18524;45.190;5.732;2023-12-07T16:37:32;99082.44;;;6.61;75.84
15670;BME280;18524;45.190;5.732;2023-12-07T16:42:22;99079.16;;;6.71;76.05
15670;BME280;18524;45.190;5.732;2023-12-07T16:47:13;99066.22;;;6.70;75.95
15670;BME280;18524;45.190;5.732;2023-12-07T16:52:04;99071.50;;;6.55;76.93
15670;BME280;18524;45.190;5.732;2023-12-07T16:56:55;99067.31;;;6.53;77.57
15670;BME280;18524;45.190;5.732;2023-12-07T17:01:45;99076.91;;;6.52;78.05
15670;BME280;18524;45.190;5.732;2023-12-07T17:06:36;99067.69;;;6.74;77.89
15670;BME280;18524;45.190;5.732;2023-12-07T17:11:26;99092.22;;;6.57;78.06
15670;BME280;18524;45.190;5.732;2023-12-07T17:16:17;99086.03;;;6.72;78.25
15670;BME280;18524;45.190;5.732;2023-12-07T17:21:07;99089.69;;;6.70;78.22
15670;BME280;18524;45.190;5.732;2023-12-07T17:25:58;99086.50;;;6.65;78.17
15670;BME280;18524;45.190;5.732;2023-12-07T17:30:48;99089.94;;;6.52;80.08
15670;BME280;18524;45.190;5.732;2023-12-07T17:35:38;99071.91;;;6.49;80.29
15670;BME280;18524;45.190;5.732;2023-12-07T17:40:29;99068.16;;;6.53;80.37
15670;BME280;18524;45.190;5.732;2023-12-07T17:45:19;99045.31;;;6.44;81.39
15670;BME280;18524;45.190;5.732;2023-12-07T17:50:09;99040.13;;;6.57;81.83
15670;BME280;18524;45.190;5.732;2023-12-07T17:55:00;99028.13;;;6.54;82.46
15670;BME280;18524;45.190;5.732;2023-12-07T17:59:50;99035.66;;;6.59;81.58
15670;BME280;18524;45.190;5.732;2023-12-07T18:04:41;99028.00;;;6.43;82.88
15670;BME280;18524;45.190;5.732;2023-12-07T18:09:31;99026.38;;;6.55;83.50
15670;BME280;18524;45.190;5.732;2023-12-07T18:14:21;99038.47;;;6.69;82.43
15670;BME280;18524;45.190;5.732;2023-12-07T18:19:12;99049.97;;;6.79;82.13
15670;BME280;18524;45.190;5.732;2023-12-07T18:24:02;99054.16;;;6.94;81.88
15670;BME280;18524;45.190;5.732;2023-12-07T18:28:53;99057.91;;;7.03;81.13
15670;BME280;18524;45.190;5.732;2023-12-07T18:33:44;99051.38;;;7.10;80.19
15670;BME280;18524;45.190;5.732;2023-12-07T18:38:35;99047.94;;;7.09;81.48
15670;BME280;18524;45.190;5.732;2023-12-07T18:43:25;99046.56;;;7.16;80.58
15670;BME280;18524;45.190;5.732;2023-12-07T18:48:16;99032.38;;;7.20;81.18
15670;BME280;18524;45.190;5.732;2023-12-07T18:53:06;99021.75;;;7.11;80.24
15670;BME280;18524;45.190;5.732;2023-12-07T18:57:56;99020.28;;;7.07;81.61
15670;BME280;18524;45.190;5.732;2023-12-07T19:02:47;99009.84;;;6.94;81.77
15670;BME280;18524;45.190;5.732;2023-12-07T19:07:37;99000.34;;;6.80;81.92
15670;BME280;18524;45.190;5.732;2023-12-07T19:12:28;98998.88;;;6.64;83.74
15670;BME280;18524;45.190;5.732;2023-12-07T19:17:19;98981.44;;;6.64;84.62
15670;BME280;18524;45.190;5.732;2023-12-07T19:22:09;98975.44;;;6.76;83.02
15670;BME280;18524;45.190;5.732;2023-12-07T19:26:59;98967.50;;;6.65;84.23
15670;BME280;18524;45.190;5.732;2023-12-07T19:31:51;98985.03;;;6.76;84.15
15670;BME280;18524;45.190;5.732;2023-12-07T19:36:41;98955.94;;;6.82;82.12
15670;BME280;18524;45.190;5.732;2023-12-07T19:41:32;98965.13;;;6.75;82.56
15670;BME280;18524;45.190;5.732;2023-12-07T19:46:24;98965.22;;;6.73;84.03
15670;BME280;18524;45.190;5.732;2023-12-07T19:51:18;98973.88;;;6.74;83.71
15670;BME280;18524;45.190;5.732;2023-12-07T19:56:09;98974.19;;;6.82;84.17
15670;BME280;18524;45.190;5.732;2023-12-07T20:00:59;98971.06;;;6.77;84.42
15670;BME280;18524;45.190;5.732;2023-12-07T20:05:49;98961.56;;;6.63;82.36
15670;BME280;18524;45.190;5.732;2023-12-07T20:10:40;98931.56;;;6.70;82.55
15670;BME280;18524;45.190;5.732;2023-12-07T20:15:30;98942.91;;;6.82;81.61
15670;BME280;18524;45.190;5.732;2023-12-07T20:20:20;98937.06;;;6.91;80.48
15670;BME280;18524;45.190;5.732;2023-12-07T20:25:11;98942.47;;;7.01;81.20
15670;BME280;18524;45.190;5.732;2023-12-07T20:30:01;98940.25;;;7.20;81.25
15670;BME280;18524;45.190;5.732;2023-12-07T20:34:51;98925.81;;;7.40;83.54
15670;BME280;18524;45.190;5.732;2023-12-07T20:39:42;98928.84;;;7.34;82.48
15670;BME280;18524;45.190;5.732;2023-12-07T20:44:32;98927.63;;;7.27;84.14
15670;BME280;18524;45.190;5.732;2023-12-07T20:49:22;98915.25;;;7.17;83.62
15670;BME280;18524;45.190;5.732;2023-12-07T20:54:13;98896.38;;;7.50;80.86
15670;BME280;18524;45.190;5.732;2023-12-07T20:59:03;98895.69;;;7.60;80.15
15670;BME280;18524;45.190;5.732;2023-12-07T21:03:53;98880.38;;;7.55;80.14
15670;BME280;18524;45.190;5.732;2023-12-07T21:08:44;98880.16;;;7.58;79.68
15670;BME280;18524;45.190;5.732;2023-12-07T21:13:34;98880.19;;;7.69;80.86
15670;BME280;18524;45.190;5.732;2023-12-07T21:18:24;98885.19;;;7.72;80.69
15670;BME280;18524;45.190;5.732;2023-12-07T21:23:15;98886.41;;;7.56;78.38
15670;BME280;18524;45.190;5.732;2023-12-07T21:28:05;98893.06;;;7.36;81.88
15670;BME280;18524;45.190;5.732;2023-12-07T21:32:56;98896.88;;;7.43;80.71
15670;BME280;18524;45.190;5.732;2023-12-07T21:37:46;98883.44;;;7.49;81.38
15670;BME280;18524;45.190;5.732;2023-12-07T21:42:36;98893.38;;;7.44;80.75
15670;BME280;18524;45.190;5.732;2023-12-07T21:47:27;98883.44;;;7.36;79.62
15670;BME280;18524;45.190;5.732;2023-12-07T21:52:17;98893.09;;;7.23;79.62
15670;BME280;18524;45.190;5.732;2023-12-07T21:57:07;98881.44;;;7.16;82.76
15670;BME280;18524;45.190;5.732;2023-12-07T22:01:58;98883.38;;;7.25;81.85
15670;BME280;18524;45.190;5.732;2023-12-07T22:06:48;98866.84;;;7.13;83.62
15670;BME280;18524;45.190;5.732;2023-12-07T22:11:43;98864.84;;;7.17;82.57
15670;BME280;18524;45.190;5.732;2023-12-07T22:16:33;98856.09;;;7.18;83.65
15670;BME280;18524;45.190;5.732;2023-12-07T22:21:29;98854.56;;;7.03;83.83
15670;BME280;18524;45.190;5.732;2023-12-07T22:26:19;98849.31;;;7.15;85.47
15670;BME280;18524;45.190;5.732;2023-12-07T22:31:12;98831.66;;;7.43;84.79
15670;BME280;18524;45.190;5.732;2023-12-07T22:36:02;98836.38;;;7.38;81.41
15670;BME280;18524;45.190;5.732;2023-12-07T22:40:53;98828.00;;;7.21;83.15
15670;BME280;18524;45.190;5.732;2023-12-07T22:45:43;98835.91;;;7.09;82.87
15670;BME280;18524;45.190;5.732;2023-12-07T22:50:34;98831.50;;;7.09;83.76
15670;BME280;18524;45.190;5.732;2023-12-07T22:55:24;98850.16;;;7.16;85.97
15670;BME280;18524;45.190;5.732;2023-12-07T23:00:15;98848.75;;;7.23;84.54
15670;BME280;18524;45.190;5.732;2023-12-07T23:05:11;98845.31;;;7.22;87.10
15670;BME280;18524;45.190;5.732;2023-12-07T23:10:01;98851.44;;;7.34;85.15
15670;BME280;18524;45.190;5.732;2023-12-07T23:14:52;98844.53;;;7.09;84.79
15670;BME280;18524;45.190;5.732;2023-12-07T23:19:42;98887.88;;;7.23;87.96
15670;BME280;18524;45.190;5.732;2023-12-07T23:24:33;98868.91;;;7.21;89.54
15670;BME280;18524;45.190;5.732;2023-12-07T23:29:23;98861.47;;;7.28;86.34
15670;BME280;18524;45.190;5.732;2023-12-07T23:34:13;98860.16;;;7.46;84.90
15670;BME280;18524;45.190;5.732;2023-12-07T23:39:04;98851.44;;;7.34;85.61
15670;BME280;18524;45.190;5.732;2023-12-07T23:43:54;98851.09;;;7.39;85.92
15670;BME280;18524;45.190;5.732;2023-12-07T23:48:45;98846.81;;;7.38;87.69
15670;BME280;18524;45.190;5.732;2023-12-07T23:53:35;98851.88;;;7.28;87.43
15670;BME280;18524;45.190;5.732;2023-12-07T23:58:25;98846.38;;;7.20;88.05
